Time;durP1;ratioP1;P1;durP2;ratioP2;P2;SDS_P1;SDS_P2;PMS_P1;PMS_P2;Temp;Humidity;BMP_temperature;BMP_pressure;BME280_temperature;BME280_humidity;BME280_pressure;Samples;Min_cycle;Max_cycle;Signal;HPM_P1;HPM_P2
2022/10/31 00:01:56;;;;;;;28.27;22.97;;;12.40;99.90;;;;;;4928527;29;20201;-65
2022/10/31 00:04:21;;;;;;;30.60;21.90;;;12.40;99.90;;;;;;4928875;29;20203;-65
2022/10/31 00:06:47;;;;;;;30.00;24.07;;;12.30;99.90;;;;;;4928549;29;20267;-65
2022/10/31 00:09:12;;;;;;;35.13;23.73;;;12.30;99.90;;;;;;4928444;29;20673;-66
2022/10/31 00:11:38;;;;;;;29.60;23.07;;;12.30;99.90;;;;;;4927063;29;20218;-65
2022/10/31 00:14:03;;;;;;;36.40;25.13;;;12.30;99.90;;;;;;4929399;29;20206;-66
2022/10/31 00:16:30;;;;;;;34.57;26.13;;;12.30;99.90;;;;;;4929400;29;20235;-65
2022/10/31 00:19:00;;;;;;;35.33;26.03;;;12.20;99.90;;;;;;4929688;29;20201;-65
2022/10/31 00:21:26;;;;;;;30.57;23.27;;;12.20;99.90;;;;;;4929294;29;20199;-65
2022/10/31 00:23:52;;;;;;;35.03;24.93;;;12.20;99.90;;;;;;4927123;29;20214;-67
2022/10/31 00:26:18;;;;;;;31.63;24.93;;;12.20;99.90;;;;;;4928560;29;20226;-66
2022/10/31 00:28:44;;;;;;;27.30;22.03;;;12.10;99.90;;;;;;4929903;29;20248;-66
2022/10/31 00:31:11;;;;;;;31.20;24.77;;;12.10;99.90;;;;;;4926202;29;20213;-66
2022/10/31 00:33:38;;;;;;;34.80;24.90;;;12.10;99.90;;;;;;4928641;29;20212;-67
2022/10/31 00:36:05;;;;;;;36.93;25.63;;;12.10;99.90;;;;;;4922787;29;20273;-66
2022/10/31 00:38:31;;;;;;;25.63;22.10;;;12.10;99.90;;;;;;4931818;29;20228;-66
2022/10/31 00:40:56;;;;;;;31.60;23.57;;;12.10;99.90;;;;;;4926345;29;20269;-64
2022/10/31 00:43:22;;;;;;;28.03;22.07;;;12.00;99.90;;;;;;4929846;29;20231;-66
2022/10/31 00:45:47;;;;;;;31.20;21.53;;;12.10;99.90;;;;;;4929079;29;20256;-66
2022/10/31 00:48:13;;;;;;;29.87;19.10;;;12.10;99.90;;;;;;4926613;28;20599;-66
2022/10/31 00:50:39;;;;;;;26.37;18.43;;;12.10;99.90;;;;;;4932412;29;20681;-66
2022/10/31 00:53:05;;;;;;;32.33;20.83;;;12.10;99.90;;;;;;4932303;28;20249;-66
2022/10/31 00:55:30;;;;;;;27.97;19.63;;;12.10;99.90;;;;;;4932066;29;20721;-67
2022/10/31 00:57:56;;;;;;;26.10;20.63;;;12.10;99.90;;;;;;4932467;29;20221;-68
2022/10/31 01:00:22;;;;;;;22.83;18.63;;;12.10;99.90;;;;;;4932304;29;20203;-67
2022/10/31 01:02:47;;;;;;;23.63;18.70;;;12.00;99.90;;;;;;4930788;29;20219;-67
2022/10/31 01:05:13;;;;;;;23.20;17.57;;;12.10;99.90;;;;;;4932658;29;20244;-67
2022/10/31 01:07:40;;;;;;;18.70;15.47;;;12.10;99.90;;;;;;4933346;29;20767;-67
2022/10/31 01:10:07;;;;;;;19.77;16.10;;;12.10;99.90;;;;;;4915896;29;20324;-72
2022/10/31 01:12:40;;;;;;;21.93;16.70;;;12.10;99.90;;;;;;4932511;29;20253;-66
2022/10/31 01:15:06;;;;;;;17.37;15.47;;;12.10;99.90;;;;;;4930180;29;20321;-66
2022/10/31 01:17:31;;;;;;;19.50;15.90;;;12.10;99.90;;;;;;4934471;29;20222;-67
2022/10/31 01:19:57;;;;;;;21.93;16.13;;;12.10;99.90;;;;;;4933755;29;20928;-67
2022/10/31 01:22:22;;;;;;;24.93;16.87;;;12.10;99.90;;;;;;4929141;29;20288;-67
2022/10/31 01:24:48;;;;;;;24.67;16.20;;;12.10;99.90;;;;;;4932154;29;20664;-67
2022/10/31 01:27:14;;;;;;;21.97;16.93;;;12.00;99.90;;;;;;4930385;29;20245;-67
2022/10/31 01:29:39;;;;;;;20.83;16.87;;;12.00;99.90;;;;;;4932557;29;20216;-67
2022/10/31 01:32:05;;;;;;;22.73;16.53;;;12.00;99.90;;;;;;4932492;29;20203;-68
2022/10/31 01:34:30;;;;;;;24.27;16.10;;;12.00;99.90;;;;;;4932196;29;20206;-67
2022/10/31 01:36:55;;;;;;;18.67;15.57;;;12.00;99.90;;;;;;4930769;29;20352;-67
2022/10/31 01:39:21;;;;;;;23.87;17.13;;;12.00;99.90;;;;;;4931752;29;20210;-67
2022/10/31 01:41:52;;;;;;;21.63;15.93;;;12.00;99.90;;;;;;4931657;29;20292;-68
2022/10/31 01:44:18;;;;;;;18.97;16.67;;;11.90;99.90;;;;;;4931840;29;20197;-67
2022/10/31 01:47:06;;;;;;;18.37;16.40;;;11.90;99.90;;;;;;4945301;29;20313;-67
2022/10/31 01:49:35;;;;;;;22.97;17.03;;;11.90;99.90;;;;;;4948887;29;20283;-67
2022/10/31 01:52:10;;;;;;;20.53;16.33;;;11.90;99.90;;;;;;4949237;29;20192;-67
2022/10/31 01:54:40;;;;;;;23.57;15.20;;;11.90;99.90;;;;;;4949415;28;20228;-67
2022/10/31 01:57:10;;;;;;;24.33;16.13;;;11.80;99.90;;;;;;4949106;29;20220;-67
2022/10/31 01:59:40;;;;;;;25.10;16.80;;;11.80;99.90;;;;;;4949246;29;20178;-67
2022/10/31 02:02:06;;;;;;;24.60;15.53;;;11.80;99.90;;;;;;4948115;29;20197;-67
2022/10/31 02:04:32;;;;;;;20.53;16.00;;;11.80;99.90;;;;;;4948459;29;20537;-66
2022/10/31 02:07:10;;;;;;;25.53;15.77;;;11.80;99.90;;;;;;4948570;29;20267;-67
2022/10/31 02:09:37;;;;;;;19.87;15.60;;;11.90;99.90;;;;;;4948454;29;20190;-67
2022/10/31 02:12:03;;;;;;;16.93;14.10;;;11.90;99.90;;;;;;4948494;29;20610;-67
2022/10/31 02:14:30;;;;;;;21.37;14.40;;;11.90;99.90;;;;;;4948432;29;20189;-66
2022/10/31 02:16:55;;;;;;;24.57;14.83;;;11.90;99.90;;;;;;4948873;29;20690;-67
2022/10/31 02:19:51;;;;;;;20.67;15.43;;;12.00;99.90;;;;;;4948674;29;20273;-66
2022/10/31 02:22:44;;;;;;;18.37;15.63;;;12.00;99.90;;;;;;4948433;29;20184;-66
2022/10/31 02:25:54;;;;;;;22.67;16.30;;;12.00;99.90;;;;;;4948066;29;20660;-66
2022/10/31 02:28:53;;;;;;;23.47;14.50;;;12.00;99.90;;;;;;4948238;29;20195;-66
2022/10/31 02:31:50;;;;;;;21.87;16.00;;;11.90;99.90;;;;;;4943869;29;20276;-66
2022/10/31 02:34:51;;;;;;;18.13;15.00;;;11.90;99.90;;;;;;4948240;29;20193;-67
2022/10/31 02:37:22;;;;;;;21.37;14.43;;;11.80;99.90;;;;;;4947851;29;20218;-67
2022/10/31 02:40:10;;;;;;;22.97;15.70;;;11.80;99.90;;;;;;4945767;29;20221;-67
2022/10/31 02:42:50;;;;;;;17.97;14.43;;;11.70;99.90;;;;;;4929783;29;20244;-68
2022/10/31 02:45:31;;;;;;;17.23;13.40;;;11.80;99.90;;;;;;4925714;29;20756;-67
2022/10/31 02:48:01;;;;;;;23.00;15.37;;;11.70;99.90;;;;;;4929602;29;20242;-67
2022/10/31 02:50:33;;;;;;;22.77;14.97;;;11.70;99.90;;;;;;4930384;29;20345;-69
2022/10/31 02:52:59;;;;;;;17.70;14.23;;;11.70;99.90;;;;;;4930315;28;20220;-68
2022/10/31 02:55:24;;;;;;;23.13;15.73;;;11.80;99.90;;;;;;4928244;29;20209;-69
2022/10/31 02:57:53;;;;;;;20.13;14.23;;;11.80;99.90;;;;;;4930728;29;20222;-68
2022/10/31 03:00:19;;;;;;;21.40;15.33;;;11.90;99.90;;;;;;4931102;29;20924;-68
2022/10/31 03:03:16;;;;;;;17.30;15.30;;;11.80;99.90;;;;;;4931547;29;20196;-68
2022/10/31 03:06:08;;;;;;;22.83;15.30;;;11.90;99.90;;;;;;4906515;29;20206;-68
2022/10/31 03:08:45;;;;;;;18.07;15.33;;;11.90;99.90;;;;;;4926134;29;20803;-67
2022/10/31 03:11:11;;;;;;;24.60;14.90;;;11.90;99.90;;;;;;4928557;29;20209;-67
2022/10/31 03:14:01;;;;;;;17.63;13.97;;;11.90;99.90;;;;;;4929638;29;20231;-68
2022/10/31 03:16:46;;;;;;;20.33;14.07;;;12.00;99.90;;;;;;4921266;29;20207;-67
2022/10/31 03:19:29;;;;;;;21.20;14.17;;;12.00;99.90;;;;;;4929102;29;20214;-66
2022/10/31 03:22:14;;;;;;;17.87;15.07;;;12.00;99.90;;;;;;4927274;29;20206;-67
2022/10/31 03:24:41;;;;;;;18.53;14.73;;;12.00;99.90;;;;;;4923553;29;20206;-68
2022/10/31 03:27:11;;;;;;;19.40;15.03;;;11.90;99.90;;;;;;4915223;29;20303;-68
2022/10/31 03:29:39;;;;;;;19.80;15.37;;;12.00;99.90;;;;;;4929019;29;20221;-68
2022/10/31 03:32:19;;;;;;;20.63;15.83;;;12.00;99.90;;;;;;4929789;29;20198;-67
2022/10/31 03:34:47;;;;;;;20.97;15.40;;;12.10;99.90;;;;;;4928396;29;20567;-67
2022/10/31 03:37:17;;;;;;;21.07;15.27;;;12.10;99.90;;;;;;4929793;29;20465;-67
2022/10/31 03:39:44;;;;;;;23.93;15.90;;;12.20;99.90;;;;;;4920767;29;20202;-68
2022/10/31 03:42:22;;;;;;;27.00;18.00;;;12.20;99.90;;;;;;4930040;29;20832;-68
2022/10/31 03:45:10;;;;;;;22.33;16.27;;;12.20;99.90;;;;;;4929902;29;20238;-69
2022/10/31 03:47:37;;;;;;;17.20;14.97;;;12.20;99.90;;;;;;4929853;29;20240;-69
2022/10/31 03:50:04;;;;;;;19.17;15.70;;;12.20;99.90;;;;;;4925768;29;20291;-70
2022/10/31 03:52:41;;;;;;;17.93;14.27;;;12.20;99.90;;;;;;4927643;29;20241;-68
2022/10/31 03:55:17;;;;;;;19.50;16.00;;;12.20;99.90;;;;;;4929984;29;20282;-67
2022/10/31 03:57:55;;;;;;;16.43;14.70;;;12.20;99.90;;;;;;4927602;29;20224;-67
2022/10/31 04:00:21;;;;;;;20.73;15.57;;;12.20;99.90;;;;;;4930816;29;20678;-67
2022/10/31 04:03:03;;;;;;;22.40;14.17;;;12.20;99.90;;;;;;4925848;29;20241;-67
2022/10/31 04:05:30;;;;;;;23.50;15.43;;;12.20;99.90;;;;;;4926033;29;20225;-67
2022/10/31 04:07:58;;;;;;;24.50;15.37;;;12.10;99.90;;;;;;4927432;29;20307;-66
2022/10/31 04:10:25;;;;;;;19.97;15.00;;;12.10;99.90;;;;;;4929657;29;20215;-66
2022/10/31 04:13:00;;;;;;;17.10;13.93;;;12.10;99.90;;;;;;4927424;29;20210;-67
2022/10/31 04:15:27;;;;;;;22.13;14.03;;;12.10;99.90;;;;;;4928726;29;20220;-66
2022/10/31 04:17:55;;;;;;;18.63;14.80;;;12.10;99.90;;;;;;4929080;29;20209;-66
2022/10/31 04:20:33;;;;;;;20.53;15.33;;;12.10;99.90;;;;;;4928918;29;20296;-65
2022/10/31 04:23:00;;;;;;;25.33;16.27;;;12.10;99.90;;;;;;4924387;28;20315;-66
2022/10/31 04:25:25;;;;;;;17.73;15.63;;;12.10;99.90;;;;;;4935515;29;20267;-66
2022/10/31 04:27:51;;;;;;;20.80;15.53;;;12.20;99.90;;;;;;4936236;29;20683;-66
2022/10/31 04:30:16;;;;;;;19.30;15.53;;;12.10;99.90;;;;;;4934507;29;20212;-66
2022/10/31 04:32:42;;;;;;;20.37;14.40;;;12.10;99.90;;;;;;4934840;29;20417;-66
2022/10/31 04:35:07;;;;;;;18.33;14.43;;;12.10;99.90;;;;;;4936642;28;20196;-66
2022/10/31 04:37:33;;;;;;;18.67;14.77;;;12.10;99.90;;;;;;4932728;28;20223;-66
2022/10/31 04:39:58;;;;;;;17.43;13.60;;;12.10;99.90;;;;;;4935099;29;20570;-67
2022/10/31 04:42:24;;;;;;;18.63;15.83;;;12.10;99.90;;;;;;4934791;29;20290;-66
2022/10/31 04:44:49;;;;;;;20.63;14.83;;;12.10;99.90;;;;;;4934174;29;20733;-66
2022/10/31 04:47:15;;;;;;;26.20;15.97;;;12.10;99.90;;;;;;4934411;29;20341;-66
2022/10/31 04:49:40;;;;;;;20.87;15.10;;;12.00;99.90;;;;;;4934831;29;20206;-66
2022/10/31 04:52:07;;;;;;;21.23;15.30;;;12.00;99.90;;;;;;4935264;29;20217;-68
2022/10/31 04:54:32;;;;;;;20.07;15.43;;;12.00;99.90;;;;;;4932549;29;20270;-68
2022/10/31 04:56:57;;;;;;;22.77;15.33;;;12.00;99.90;;;;;;4934346;29;20757;-68
2022/10/31 04:59:23;;;;;;;16.37;14.60;;;12.00;99.90;;;;;;4935674;29;20208;-68
2022/10/31 05:01:48;;;;;;;21.53;15.70;;;11.90;99.90;;;;;;4932955;29;20192;-68
2022/10/31 05:04:14;;;;;;;30.87;15.47;;;12.00;99.90;;;;;;4934094;29;20203;-69
2022/10/31 05:06:39;;;;;;;21.17;16.00;;;11.90;99.90;;;;;;4937891;29;20213;-68
2022/10/31 05:09:05;;;;;;;23.93;16.10;;;11.90;99.90;;;;;;4929455;28;20566;-68
2022/10/31 05:11:30;;;;;;;21.47;15.97;;;12.00;99.90;;;;;;4935027;29;20208;-68
2022/10/31 05:13:56;;;;;;;19.80;15.43;;;12.00;99.90;;;;;;4934969;29;20272;-68
2022/10/31 05:16:21;;;;;;;22.83;15.30;;;12.00;99.90;;;;;;4934874;29;20192;-68
2022/10/31 05:18:46;;;;;;;17.20;14.70;;;12.00;99.90;;;;;;4934935;29;20254;-68
2022/10/31 05:21:12;;;;;;;25.30;15.83;;;11.90;99.90;;;;;;4934955;29;20393;-68
2022/10/31 05:23:37;;;;;;;23.90;17.03;;;12.00;99.90;;;;;;4928318;29;20199;-67
2022/10/31 05:26:03;;;;;;;23.97;14.50;;;11.90;99.90;;;;;;4944143;29;20686;-69
2022/10/31 05:28:29;;;;;;;19.13;15.50;;;11.90;99.90;;;;;;4944128;29;20206;-68
2022/10/31 05:30:54;;;;;;;22.83;16.50;;;11.90;99.90;;;;;;4943868;28;20538;-68
2022/10/31 05:33:19;;;;;;;20.23;15.27;;;11.90;99.90;;;;;;4944573;29;20634;-68
2022/10/31 05:35:45;;;;;;;19.43;15.13;;;11.90;99.90;;;;;;4942292;28;20287;-68
2022/10/31 05:38:10;;;;;;;25.10;15.33;;;11.90;99.90;;;;;;4939019;29;20218;-68
2022/10/31 05:40:36;;;;;;;17.43;15.30;;;11.90;99.90;;;;;;4940944;29;20223;-67
2022/10/31 05:43:02;;;;;;;24.50;16.53;;;11.90;99.90;;;;;;4940692;29;20212;-66
2022/10/31 05:45:27;;;;;;;28.07;16.77;;;11.90;99.90;;;;;;4941283;29;20201;-66
2022/10/31 05:47:54;;;;;;;23.37;16.97;;;11.90;99.90;;;;;;4940920;29;20228;-66
2022/10/31 05:50:20;;;;;;;19.60;16.00;;;11.90;99.90;;;;;;4941029;29;20691;-66
2022/10/31 05:52:46;;;;;;;22.90;15.80;;;11.90;99.90;;;;;;4939490;28;20212;-66
2022/10/31 05:55:11;;;;;;;23.10;16.50;;;11.90;99.90;;;;;;4940804;29;20695;-66
2022/10/31 05:57:37;;;;;;;23.77;16.13;;;11.90;99.90;;;;;;4940904;29;20692;-65
2022/10/31 06:00:04;;;;;;;20.80;15.90;;;11.90;99.90;;;;;;4937184;29;20334;-65
2022/10/31 06:02:34;;;;;;;24.33;16.43;;;11.90;99.90;;;;;;4930357;29;20205;-65
2022/10/31 06:05:00;;;;;;;22.97;17.07;;;11.90;99.90;;;;;;4940551;29;20238;-67
2022/10/31 06:07:25;;;;;;;21.67;15.37;;;11.90;99.90;;;;;;4936201;29;20229;-66
2022/10/31 06:09:50;;;;;;;18.83;15.33;;;11.90;99.90;;;;;;4929234;29;20212;-64
2022/10/31 06:12:16;;;;;;;30.20;16.53;;;11.90;99.90;;;;;;4924263;29;20735;-67
2022/10/31 06:14:41;;;;;;;22.50;15.80;;;11.90;99.90;;;;;;4926313;29;20218;-65
2022/10/31 06:17:07;;;;;;;29.73;17.47;;;11.90;99.90;;;;;;4924323;29;20220;-67
2022/10/31 06:19:32;;;;;;;20.00;15.90;;;11.90;99.90;;;;;;4925294;29;20557;-67
2022/10/31 06:21:58;;;;;;;26.90;16.50;;;11.90;99.90;;;;;;4926077;29;20675;-66
2022/10/31 06:24:23;;;;;;;24.23;16.60;;;12.00;99.90;;;;;;4924368;29;20214;-66
2022/10/31 06:26:49;;;;;;;24.23;16.67;;;11.90;99.90;;;;;;4926150;29;20208;-67
2022/10/31 06:29:14;;;;;;;21.50;15.53;;;11.90;99.90;;;;;;4929138;29;20227;-68
2022/10/31 06:31:40;;;;;;;20.63;14.87;;;11.90;99.90;;;;;;4925746;29;20205;-66
2022/10/31 06:34:05;;;;;;;24.20;16.10;;;12.00;99.90;;;;;;4919535;29;20598;-71
2022/10/31 06:36:30;;;;;;;19.20;15.23;;;12.00;99.90;;;;;;4940953;29;20987;-78
2022/10/31 06:38:56;;;;;;;18.43;16.03;;;12.10;99.90;;;;;;4940898;29;20228;-71
2022/10/31 06:41:21;;;;;;;19.23;15.83;;;12.20;99.90;;;;;;4940020;29;20207;-71
2022/10/31 06:43:47;;;;;;;22.80;15.73;;;12.20;99.90;;;;;;4938928;29;20311;-73
2022/10/31 06:46:13;;;;;;;18.17;15.23;;;12.40;99.90;;;;;;4925490;28;20593;-71
2022/10/31 06:48:41;;;;;;;20.07;15.47;;;12.40;99.90;;;;;;4935353;29;20213;-72
2022/10/31 06:51:06;;;;;;;22.10;14.50;;;12.50;99.90;;;;;;4940002;29;20708;-71
2022/10/31 06:53:32;;;;;;;18.23;14.80;;;12.60;99.90;;;;;;4939449;28;20283;-71
2022/10/31 06:55:57;;;;;;;23.60;14.47;;;12.50;99.90;;;;;;4939553;29;20314;-72
2022/10/31 06:58:23;;;;;;;21.50;14.33;;;12.50;99.90;;;;;;4937612;29;20286;-69
2022/10/31 07:00:48;;;;;;;25.77;14.57;;;12.60;99.90;;;;;;4927290;29;20299;-69
2022/10/31 07:03:18;;;;;;;20.13;14.47;;;12.70;99.90;;;;;;4933241;29;20523;-68
2022/10/31 07:05:44;;;;;;;22.37;14.87;;;12.80;99.90;;;;;;4908194;29;20284;-67
2022/10/31 07:08:11;;;;;;;22.37;15.10;;;12.90;99.90;;;;;;4927633;29;20215;-67
2022/10/31 07:10:39;;;;;;;24.17;14.63;;;13.00;99.90;;;;;;4925126;29;20219;-72
2022/10/31 07:13:08;;;;;;;18.50;14.87;;;13.10;99.90;;;;;;4929968;29;20574;-73
2022/10/31 07:15:36;;;;;;;19.43;14.63;;;13.10;99.90;;;;;;4926479;29;20201;-72
2022/10/31 07:18:03;;;;;;;18.60;14.83;;;13.30;99.90;;;;;;4924119;29;20322;-72
2022/10/31 07:20:30;;;;;;;23.00;14.97;;;13.40;99.90;;;;;;4927249;29;20289;-72
2022/10/31 07:22:55;;;;;;;19.47;15.17;;;13.40;99.90;;;;;;4924876;29;20214;-67
2022/10/31 07:25:21;;;;;;;26.17;15.33;;;13.50;99.90;;;;;;4922843;29;20209;-68
2022/10/31 07:27:47;;;;;;;21.60;14.47;;;13.50;99.90;;;;;;4924702;29;20975;-68
2022/10/31 07:30:13;;;;;;;24.83;16.23;;;13.50;99.90;;;;;;4925424;29;20204;-69
2022/10/31 07:32:41;;;;;;;19.60;15.07;;;13.60;99.90;;;;;;4925698;29;20234;-68
2022/10/31 07:35:08;;;;;;;29.13;15.73;;;13.60;99.90;;;;;;4919177;29;20636;-69
2022/10/31 07:37:33;;;;;;;26.67;16.30;;;13.70;99.90;;;;;;4922467;29;20227;-69
2022/10/31 07:39:59;;;;;;;21.97;16.13;;;13.70;99.90;;;;;;4923588;29;20230;-68
2022/10/31 07:42:24;;;;;;;26.07;17.73;;;13.70;99.90;;;;;;4921970;29;20205;-69
2022/10/31 07:44:50;;;;;;;28.73;16.93;;;13.70;99.90;;;;;;4922747;29;20203;-68
2022/10/31 07:47:15;;;;;;;28.80;17.67;;;13.80;99.90;;;;;;4922431;29;20832;-68
2022/10/31 07:49:41;;;;;;;27.70;17.43;;;13.90;99.90;;;;;;4921647;29;20603;-70
2022/10/31 07:52:06;;;;;;;25.60;17.40;;;13.80;99.90;;;;;;4924214;29;20550;-70
2022/10/31 07:54:32;;;;;;;24.07;17.80;;;13.70;99.90;;;;;;4924558;29;20214;-69
2022/10/31 07:56:57;;;;;;;25.10;18.37;;;13.70;99.90;;;;;;4935654;29;20304;-67
2022/10/31 07:59:22;;;;;;;24.13;18.13;;;13.70;99.90;;;;;;4933994;28;20543;-68
2022/10/31 08:01:48;;;;;;;26.43;19.57;;;13.70;99.90;;;;;;4924186;29;20744;-69
2022/10/31 08:04:13;;;;;;;24.80;18.07;;;13.60;99.90;;;;;;4921846;29;20326;-68
2022/10/31 08:06:39;;;;;;;27.37;18.60;;;13.60;99.90;;;;;;4922632;29;20202;-69
2022/10/31 08:09:04;;;;;;;27.10;19.93;;;13.60;99.90;;;;;;4920371;29;20206;-71
2022/10/31 08:11:30;;;;;;;26.67;19.00;;;13.70;99.90;;;;;;4928247;29;20683;-69
2022/10/31 08:13:55;;;;;;;25.10;18.77;;;13.70;99.90;;;;;;4928152;29;20199;-66
2022/10/31 08:16:21;;;;;;;27.23;18.47;;;13.70;99.90;;;;;;4928119;29;20212;-74
2022/10/31 08:18:47;;;;;;;24.93;18.70;;;13.70;99.90;;;;;;4930991;29;20217;-73
2022/10/31 08:21:12;;;;;;;30.40;19.33;;;13.70;99.90;;;;;;4933802;29;20213;-74
2022/10/31 08:23:38;;;;;;;25.47;18.73;;;13.60;99.90;;;;;;4935417;29;20572;-75
2022/10/31 08:26:05;;;;;;;31.40;19.03;;;13.50;99.90;;;;;;4932483;29;20298;-74
2022/10/31 08:28:31;;;;;;;29.07;19.37;;;13.60;99.90;;;;;;4927597;29;20214;-74
2022/10/31 08:30:58;;;;;;;23.87;19.23;;;13.50;99.90;;;;;;4936429;29;20205;-75
2022/10/31 08:33:24;;;;;;;28.20;19.53;;;13.50;99.90;;;;;;4933172;29;20560;-77
2022/10/31 08:35:49;;;;;;;22.93;19.43;;;13.50;99.90;;;;;;4928238;29;20216;-84
2022/10/31 08:38:15;;;;;;;26.43;20.93;;;13.50;99.90;;;;;;4928408;29;20210;-78
2022/10/31 08:40:41;;;;;;;30.00;21.73;;;13.50;99.90;;;;;;4921231;29;20262;-67
2022/10/31 08:43:12;;;;;;;27.07;19.67;;;13.50;99.90;;;;;;4919587;29;20190;-69
2022/10/31 08:45:37;;;;;;;26.87;21.13;;;13.50;99.90;;;;;;4923440;29;20197;-71
2022/10/31 08:48:06;;;;;;;25.93;20.77;;;13.60;99.90;;;;;;4924576;29;20645;-69
2022/10/31 08:50:35;;;;;;;40.17;20.47;;;13.60;99.90;;;;;;4926565;29;20312;-69
2022/10/31 08:53:07;;;;;;;22.83;19.60;;;13.60;99.90;;;;;;4935229;28;20291;-83
2022/10/31 08:55:35;;;;;;;29.23;20.60;;;13.70;99.90;;;;;;4936651;29;20908;-69
2022/10/31 08:58:01;;;;;;;25.73;20.50;;;13.70;99.90;;;;;;4927559;29;20303;-73
2022/10/31 09:00:27;;;;;;;27.87;20.33;;;13.80;99.90;;;;;;4931038;29;20253;-67
2022/10/31 09:03:00;;;;;;;26.77;19.00;;;13.90;99.90;;;;;;4936864;29;20214;-66
2022/10/31 09:05:26;;;;;;;24.93;18.37;;;14.00;99.90;;;;;;4937311;29;20575;-68
2022/10/31 09:07:55;;;;;;;27.43;20.40;;;14.10;99.90;;;;;;4931381;29;20300;-66
2022/10/31 09:10:20;;;;;;;27.97;19.30;;;14.10;99.90;;;;;;4919503;29;20392;-72
2022/10/31 09:12:46;;;;;;;29.30;19.40;;;14.30;99.90;;;;;;4926184;29;20689;-72
2022/10/31 09:15:11;;;;;;;26.23;19.17;;;14.40;99.90;;;;;;4925153;29;20288;-70
2022/10/31 09:17:37;;;;;;;23.97;18.97;;;14.40;99.90;;;;;;4925893;29;20209;-68
2022/10/31 09:20:02;;;;;;;27.00;18.63;;;14.30;99.90;;;;;;4924280;29;20289;-68
2022/10/31 09:22:27;;;;;;;24.80;20.03;;;14.40;99.90;;;;;;4923036;29;20190;-71
2022/10/31 09:24:53;;;;;;;31.07;21.13;;;14.40;99.90;;;;;;4932614;29;20218;-69
2022/10/31 09:27:18;;;;;;;32.83;22.30;;;14.40;99.90;;;;;;4933542;28;20293;-69
2022/10/31 09:29:44;;;;;;;33.00;20.97;;;14.50;99.90;;;;;;4933539;29;20213;-68
2022/10/31 09:32:10;;;;;;;28.43;21.70;;;14.50;99.90;;;;;;4936390;29;20202;-69
2022/10/31 09:34:35;;;;;;;29.20;19.90;;;14.60;99.90;;;;;;4938607;29;20224;-68
2022/10/31 09:37:00;;;;;;;30.50;22.73;;;14.70;99.90;;;;;;4936067;29;20211;-67
2022/10/31 09:39:26;;;;;;;28.00;21.57;;;14.70;99.90;;;;;;4923134;29;20205;-69
2022/10/31 09:42:17;;;;;;;31.87;20.43;;;14.70;99.90;;;;;;4933094;29;20243;-72
2022/10/31 09:44:50;;;;;;;31.67;22.87;;;14.90;99.90;;;;;;4940636;29;20250;-76
2022/10/31 09:47:38;;;;;;;29.47;21.43;;;14.80;99.90;;;;;;4940486;29;20256;-75
2022/10/31 09:50:19;;;;;;;31.57;22.40;;;15.00;99.90;;;;;;4940244;29;20213;-74
2022/10/31 09:52:59;;;;;;;30.30;21.43;;;15.00;99.90;;;;;;4926141;28;20447;-76
2022/10/31 09:55:36;;;;;;;30.33;22.40;;;15.10;99.90;;;;;;4938629;29;20194;-73
2022/10/31 09:58:02;;;;;;;30.33;23.43;;;15.20;99.90;;;;;;4939925;29;20248;-75
2022/10/31 10:00:28;;;;;;;31.43;22.33;;;15.30;99.90;;;;;;4935493;29;20210;-73
2022/10/31 10:03:10;;;;;;;30.53;20.63;;;15.40;99.90;;;;;;4935336;29;20202;-75
2022/10/31 10:05:45;;;;;;;28.60;21.10;;;15.60;99.90;;;;;;4931277;29;20663;-75
2022/10/31 10:08:18;;;;;;;31.27;22.50;;;15.80;99.90;;;;;;4937833;29;20209;-74
2022/10/31 10:10:51;;;;;;;28.07;20.43;;;15.90;99.90;;;;;;4939779;29;20202;-75
2022/10/31 10:14:00;;;;;;;29.50;21.53;;;15.90;99.90;;;;;;4932699;29;20894;-75
2022/10/31 10:16:53;;;;;;;29.60;22.23;;;16.10;99.90;;;;;;4921759;29;20205;-74
2022/10/31 10:19:33;;;;;;;26.97;21.33;;;16.40;99.90;;;;;;4931521;29;20230;-75
2022/10/31 10:22:40;;;;;;;28.47;20.80;;;16.50;99.90;;;;;;4939599;28;20975;-76
2022/10/31 10:25:23;;;;;;;31.87;21.30;;;16.60;99.90;;;;;;4940352;29;20332;-76
2022/10/31 10:27:59;;;;;;;34.90;21.73;;;16.50;99.90;;;;;;4936160;29;20564;-77
2022/10/31 10:30:41;;;;;;;30.77;23.30;;;16.50;99.90;;;;;;4937638;29;20225;-77
2022/10/31 10:33:19;;;;;;;25.23;20.93;;;16.50;99.90;;;;;;4941977;29;20229;-82
2022/10/31 10:35:53;;;;;;;29.90;20.20;;;16.70;99.90;;;;;;4921940;29;20281;-72
2022/10/31 10:38:46;;;;;;;30.07;22.00;;;16.80;99.90;;;;;;4925021;29;20272;-70
2022/10/31 10:41:17;;;;;;;28.07;21.33;;;17.00;99.90;;;;;;4926391;29;20277;-71
2022/10/31 10:43:42;;;;;;;29.43;21.47;;;17.20;99.90;;;;;;4920026;29;20782;-69
2022/10/31 10:49:26;;;;;;;27.80;20.53;;;17.50;99.90;;;;;;4918189;29;20370;-75
2022/10/31 10:51:55;;;;;;;29.63;21.63;;;17.50;99.90;;;;;;4929749;29;20207;-74
2022/10/31 10:54:49;;;;;;;25.80;19.43;;;17.60;99.90;;;;;;4930743;29;20223;-75
2022/10/31 10:57:32;;;;;;;26.57;19.90;;;17.70;99.90;;;;;;4926220;29;20586;-69
2022/10/31 11:00:01;;;;;;;32.30;21.53;;;17.80;99.90;;;;;;4927745;29;20298;-67
2022/10/31 11:02:30;;;;;;;29.03;22.03;;;17.70;99.90;;;;;;4930525;29;20204;-69
2022/10/31 11:04:59;;;;;;;29.67;21.47;;;18.00;99.90;;;;;;4930576;29;20210;-69
2022/10/31 11:07:25;;;;;;;24.40;18.90;;;18.10;99.90;;;;;;4929444;29;20213;-69
2022/10/31 11:10:02;;;;;;;31.07;21.53;;;18.30;99.90;;;;;;4927063;29;20618;-69
2022/10/31 11:12:31;;;;;;;27.63;19.73;;;18.50;99.90;;;;;;4927631;29;20522;-69
2022/10/31 11:15:07;;;;;;;31.53;22.17;;;18.70;99.90;;;;;;4925373;29;20227;-70
2022/10/31 11:17:39;;;;;;;32.27;23.00;;;18.50;99.90;;;;;;4920790;29;20236;-70
2022/10/31 11:20:14;;;;;;;27.90;21.53;;;18.40;99.90;;;;;;4920939;29;20234;-70
2022/10/31 11:22:44;;;;;;;29.60;22.67;;;18.40;99.90;;;;;;4919286;29;20200;-70
2022/10/31 11:25:19;;;;;;;22.17;19.17;;;18.70;99.90;;;;;;4918295;29;20264;-69
2022/10/31 11:28:05;;;;;;;28.23;22.43;;;19.00;99.90;;;;;;4920274;29;20250;-70
2022/10/31 11:30:42;;;;;;;30.90;23.80;;;19.10;99.90;;;;;;4921786;29;20212;-69
2022/10/31 11:33:21;;;;;;;34.10;22.27;;;18.80;99.90;;;;;;4927430;29;20282;-71
2022/10/31 11:35:48;;;;;;;33.67;23.27;;;18.90;99.90;;;;;;4929002;29;20209;-70
2022/10/31 11:38:19;;;;;;;28.03;20.50;;;18.90;99.90;;;;;;4936060;29;20324;-73
2022/10/31 11:40:59;;;;;;;24.17;21.53;;;19.10;99.90;;;;;;4937792;29;20215;-75
2022/10/31 11:43:25;;;;;;;30.03;20.83;;;19.20;99.90;;;;;;4931578;29;20276;-75
2022/10/31 11:45:51;;;;;;;35.07;24.10;;;19.30;99.90;;;;;;4927119;29;20353;-74
2022/10/31 11:48:23;;;;;;;29.57;22.00;;;19.60;99.90;;;;;;4927687;29;20693;-74
2022/10/31 11:50:56;;;;;;;26.07;20.77;;;19.60;99.90;;;;;;4930014;29;20533;-78
2022/10/31 11:53:27;;;;;;;29.43;20.20;;;19.40;99.90;;;;;;4929817;28;20236;-75
2022/10/31 11:56:19;;;;;;;29.03;20.40;;;19.50;99.90;;;;;;4937949;29;20214;-86
2022/10/31 11:59:00;;;;;;;26.97;18.80;;;19.70;99.90;;;;;;4935849;29;20225;-84
2022/10/31 12:01:28;;;;;;;29.40;20.43;;;19.80;99.90;;;;;;4929486;29;20201;-81
2022/10/31 12:03:58;;;;;;;28.47;20.90;;;19.90;99.90;;;;;;4930117;29;20209;-79
2022/10/31 12:06:31;;;;;;;29.37;20.40;;;19.80;99.90;;;;;;4935050;29;20247;-82
2022/10/31 12:08:56;;;;;;;28.43;20.57;;;20.00;99.90;;;;;;4938518;29;20841;-81
2022/10/31 12:11:48;;;;;;;28.00;20.33;;;20.00;99.90;;;;;;4931042;29;20301;-77
2022/10/31 12:14:37;;;;;;;29.70;20.00;;;20.20;99.90;;;;;;4932582;29;20434;-81
2022/10/31 12:17:30;;;;;;;29.93;20.57;;;20.60;99.90;;;;;;4925683;29;20219;-82
2022/10/31 12:20:03;;;;;;;32.53;20.17;;;20.50;99.90;;;;;;4924499;29;20201;-77
2022/10/31 12:23:06;;;;;;;24.50;19.53;;;21.00;99.90;;;;;;4926617;29;20205;-78
2022/10/31 12:25:41;;;;;;;22.30;18.03;;;21.10;99.90;;;;;;4928946;29;20573;-75
2022/10/31 12:28:37;;;;;;;22.40;18.80;;;21.20;99.90;;;;;;4926963;29;20206;-77
2022/10/31 12:31:24;;;;;;;26.73;18.27;;;21.50;99.90;;;;;;4930727;29;20579;-79
2022/10/31 12:34:24;;;;;;;27.23;18.93;;;22.00;99.90;;;;;;4931684;29;20640;-78
2022/10/31 12:37:20;;;;;;;23.27;16.57;;;22.50;99.90;;;;;;4915414;29;20357;-77
2022/10/31 12:40:18;;;;;;;23.80;19.17;;;22.80;99.90;;;;;;4938101;29;20202;-79
2022/10/31 12:42:57;;;;;;;22.60;16.37;;;22.90;99.90;;;;;;4932353;29;20211;-82
2022/10/31 12:45:34;;;;;;;24.43;17.90;;;22.90;99.90;;;;;;4930085;28;20249;-82
2022/10/31 12:48:44;;;;;;;25.60;18.00;;;22.90;99.90;;;;;;4930013;29;20297;-83
2022/10/31 12:51:49;;;;;;;26.17;17.77;;;22.80;99.90;;;;;;4932868;29;20280;-77